Time;durP1;ratioP1;P1;durP2;ratioP2;P2;SDS_P1;SDS_P2;PMS_P1;PMS_P2;Temp;Humidity;BMP_temperature;BMP_pressure;BME280_temperature;BME280_humidity;BME280_pressure;Samples;Min_cycle;Max_cycle;Signal;HPM_P1;HPM_P2
2023/12/24 00:02:45;;;;;;;;;18.00;16.00;;;;;6.98;100.00;97451.72;6249721;27;96467;-56
2023/12/24 00:05:48;;;;;;;;;16.50;15.50;;;;;7.07;100.00;97438.78;6236998;28;97489;-57
2023/12/24 00:09:01;;;;;;;;;14.00;12.75;;;;;7.09;100.00;97455.41;6242970;28;96267;-57
2023/12/24 00:12:06;;;;;;;;;15.00;14.00;;;;;7.13;100.00;97452.06;6237991;28;96407;-57
2023/12/24 00:15:10;;;;;;;;;16.00;15.00;;;;;6.95;100.00;97430.72;6233356;28;96210;-57
2023/12/24 00:18:13;;;;;;;;;14.75;13.00;;;;;6.95;100.00;97449.50;6242748;28;96267;-56
2023/12/24 00:21:16;;;;;;;;;11.00;10.00;;;;;6.92;100.00;97456.13;6246246;28;96224;-56
2023/12/24 00:24:21;;;;;;;;;14.00;13.00;;;;;6.88;100.00;97460.34;6247370;28;96325;-56
2023/12/24 00:27:24;;;;;;;;;10.00;10.00;;;;;6.84;100.00;97453.78;6246209;28;96726;-56
2023/12/24 00:30:27;;;;;;;;;13.00;12.00;;;;;6.90;100.00;97460.09;6246907;28;96337;-56
2023/12/24 00:33:31;;;;;;;;;12.00;10.20;;;;;6.90;100.00;97462.75;6206069;28;98342;-57
2023/12/24 00:36:34;;;;;;;;;15.40;12.40;;;;;6.93;100.00;97460.47;6228117;28;96371;-58
2023/12/24 00:39:39;;;;;;;;;11.00;9.00;;;;;6.96;100.00;97464.53;6224594;28;96838;-59
2023/12/24 00:42:42;;;;;;;;;14.00;11.00;;;;;6.87;100.00;97469.41;6229688;28;96296;-58
2023/12/24 00:45:45;;;;;;;;;11.00;10.00;;;;;6.87;100.00;97465.91;6247392;28;96567;-58
2023/12/24 00:48:49;;;;;;;;;10.20;8.40;;;;;6.91;100.00;97475.94;6264326;28;96227;-58
2023/12/24 00:51:53;;;;;;;;;10.80;9.00;;;;;6.87;100.00;97476.63;6254587;28;96463;-58
2023/12/24 00:54:57;;;;;;;;;7.60;7.60;;;;;6.93;100.00;97470.34;6263961;28;96298;-58
2023/12/24 00:58:00;;;;;;;;;10.00;8.40;;;;;6.95;100.00;97474.41;6241106;27;97439;-58
2023/12/24 01:01:04;;;;;;;;;10.40;10.40;;;;;6.97;100.00;97476.88;6226399;28;96615;-58
2023/12/24 01:04:07;;;;;;;;;9.00;9.00;;;;;6.97;100.00;97482.22;6250070;28;96384;-58
2023/12/24 01:07:11;;;;;;;;;9.00;8.00;;;;;7.01;100.00;97486.06;6226584;28;96226;-58
2023/12/24 01:10:16;;;;;;;;;10.00;10.00;;;;;6.97;100.00;97484.91;6212089;28;98626;-58
2023/12/24 01:13:20;;;;;;;;;10.00;9.80;;;;;6.99;100.00;97492.72;6263295;27;96438;-58
2023/12/24 01:16:23;;;;;;;;;8.60;8.60;;;;;6.97;100.00;97498.31;6246738;28;96653;-59
2023/12/24 01:19:27;;;;;;;;;9.00;8.60;;;;;6.94;100.00;97493.41;6254583;28;96896;-58
2023/12/24 01:22:30;;;;;;;;;9.80;9.20;;;;;6.95;100.00;97503.06;6252141;28;96723;-58
2023/12/24 01:25:35;;;;;;;;;8.00;8.00;;;;;6.95;100.00;97500.38;6252636;27;96531;-58
2023/12/24 01:28:38;;;;;;;;;8.00;8.00;;;;;6.98;100.00;97499.94;6271834;27;96228;-58
2023/12/24 01:31:41;;;;;;;;;7.40;7.00;;;;;7.00;100.00;97505.88;6268374;27;96368;-58
2023/12/24 01:34:44;;;;;;;;;7.00;7.00;;;;;6.99;100.00;97498.09;6236013;28;96820;-58
2023/12/24 01:37:47;;;;;;;;;6.00;5.00;;;;;6.85;100.00;97495.59;6260058;27;98393;-58
2023/12/24 01:40:52;;;;;;;;;8.00;7.00;;;;;6.85;100.00;97500.97;6253957;27;96853;-58
2023/12/24 01:43:55;;;;;;;;;8.00;8.00;;;;;6.81;100.00;97501.66;6248187;27;96328;-58
2023/12/24 01:46:58;;;;;;;;;9.00;8.00;;;;;6.72;100.00;97517.25;6232553;28;96260;-57
2023/12/24 01:50:02;;;;;;;;;9.00;8.80;;;;;6.63;100.00;97513.28;6250615;28;96345;-56
2023/12/24 01:53:06;;;;;;;;;8.40;7.40;;;;;6.61;100.00;97504.66;6250376;28;97672;-56
2023/12/24 01:56:11;;;;;;;;;6.00;5.80;;;;;6.56;100.00;97511.75;6238686;28;96137;-56
2023/12/24 01:59:15;;;;;;;;;9.00;8.00;;;;;6.47;100.00;97521.97;6210007;28;96313;-54
2023/12/24 02:02:19;;;;;;;;;8.00;7.00;;;;;6.41;100.00;97523.69;6253047;22;96509;-54
2023/12/24 02:05:22;;;;;;;;;5.00;4.80;;;;;6.26;100.00;97509.09;6252298;27;96914;-56
2023/12/24 02:08:26;;;;;;;;;4.00;4.00;;;;;6.28;100.00;97536.47;6225421;28;97052;-56
2023/12/24 02:11:30;;;;;;;;;5.00;4.00;;;;;6.31;100.00;97510.03;6258597;27;96285;-56
2023/12/24 02:14:33;;;;;;;;;4.00;4.00;;;;;6.22;100.00;97540.84;6247859;27;96296;-56
2023/12/24 02:17:37;;;;;;;;;4.00;4.00;;;;;6.29;100.00;97554.97;6254418;27;96470;-56
2023/12/24 02:20:40;;;;;;;;;3.00;3.00;;;;;6.16;100.00;97538.28;6252210;27;96583;-56
2023/12/24 02:23:45;;;;;;;;;4.00;4.00;;;;;6.26;100.00;97554.59;6250827;27;96397;-57
2023/12/24 02:26:56;;;;;;;;;3.75;2.75;;;;;6.07;100.00;97559.16;6247941;27;96643;-57
2023/12/24 02:30:06;;;;;;;;;2.40;2.40;;;;;5.90;100.00;97539.44;6245601;28;96216;-56
2023/12/24 02:33:12;;;;;;;;;3.00;2.60;;;;;5.96;100.00;97546.56;6249412;27;96431;-56
2023/12/24 02:36:18;;;;;;;;;2.00;2.00;;;;;5.95;100.00;97542.25;6264976;27;96116;-56
2023/12/24 02:39:22;;;;;;;;;2.40;2.40;;;;;6.00;100.00;97550.41;6263778;27;96866;-57
2023/12/24 02:42:25;;;;;;;;;2.00;2.00;;;;;5.91;100.00;97555.25;6251816;28;96295;-56
2023/12/24 02:45:28;;;;;;;;;3.00;3.00;;;;;5.94;100.00;97551.31;6259758;27;96256;-56
2023/12/24 02:48:31;;;;;;;;;3.00;3.00;;;;;5.90;100.00;97550.94;6255645;28;96275;-56
2023/12/24 02:51:35;;;;;;;;;3.00;3.00;;;;;5.92;100.00;97559.56;6245995;27;96277;-56
2023/12/24 02:54:39;;;;;;;;;2.00;2.00;;;;;5.96;100.00;97565.28;6253302;27;96282;-56
2023/12/24 02:57:42;;;;;;;;;3.00;3.00;;;;;5.93;100.00;97560.38;6259889;27;96851;-56
2023/12/24 03:00:45;;;;;;;;;4.00;4.00;;;;;5.98;100.00;97569.34;6279408;27;96788;-57
2023/12/24 03:03:48;;;;;;;;;3.00;3.00;;;;;6.02;100.00;97572.41;6260142;27;96214;-56
2023/12/24 03:06:52;;;;;;;;;2.80;2.80;;;;;5.99;100.00;97576.34;6273974;27;96834;-56
2023/12/24 03:09:57;;;;;;;;;2.50;2.00;;;;;6.00;100.00;97578.00;6245337;27;96327;-56
2023/12/24 03:13:00;;;;;;;;;3.00;3.00;;;;;5.99;100.00;97584.38;6239206;27;96702;-57
2023/12/24 03:16:03;;;;;;;;;3.40;3.40;;;;;5.89;100.00;97580.59;6239612;27;96291;-56
2023/12/24 03:19:07;;;;;;;;;2.20;2.20;;;;;5.97;100.00;97569.56;6254852;27;96238;-57
2023/12/24 03:22:10;;;;;;;;;4.00;4.00;;;;;5.89;100.00;97575.25;6246273;28;98387;-56
2023/12/24 03:25:15;;;;;;;;;1.60;1.60;;;;;5.96;100.00;97581.34;6239352;27;96178;-56
2023/12/24 03:28:18;;;;;;;;;3.60;3.60;;;;;5.91;100.00;97573.16;6241370;27;96264;-56
2023/12/24 03:31:25;;;;;;;;;2.00;2.00;;;;;5.87;100.00;97574.63;6240405;27;96816;-56
2023/12/24 03:34:29;;;;;;;;;3.25;3.00;;;;;5.86;100.00;97573.81;6251083;27;97664;-57
2023/12/24 03:37:32;;;;;;;;;3.40;3.40;;;;;5.83;100.00;97571.56;6271582;27;96300;-56
2023/12/24 03:40:36;;;;;;;;;2.75;2.75;;;;;5.85;100.00;97584.72;6264223;27;96968;-57
2023/12/24 03:43:39;;;;;;;;;3.00;3.00;;;;;5.90;100.00;97588.41;6256256;27;96244;-56
2023/12/24 03:46:43;;;;;;;;;4.00;3.40;;;;;5.95;100.00;97580.53;6258209;27;96353;-56
2023/12/24 03:49:46;;;;;;;;;3.00;3.00;;;;;5.95;100.00;97588.53;6235357;27;96247;-56
2023/12/24 03:52:49;;;;;;;;;3.20;3.00;;;;;6.02;100.00;97591.13;6250296;27;96466;-56
2023/12/24 03:55:54;;;;;;;;;4.00;4.00;;;;;5.95;100.00;97588.53;6275682;27;96250;-56
2023/12/24 03:58:58;;;;;;;;;3.00;3.00;;;;;5.93;100.00;97587.13;6264094;27;96390;-56
2023/12/24 04:02:02;;;;;;;;;4.00;3.00;;;;;5.85;100.00;97584.72;6245669;27;96163;-57
2023/12/24 04:05:06;;;;;;;;;2.00;2.00;;;;;6.06;100.00;97581.59;6252832;27;96339;-57
2023/12/24 04:08:09;;;;;;;;;3.00;3.00;;;;;5.94;100.00;97584.22;6244543;27;96313;-57
2023/12/24 04:11:14;;;;;;;;;4.00;4.00;;;;;6.00;100.00;97585.19;6238190;28;96354;-56
2023/12/24 04:14:17;;;;;;;;;2.00;2.00;;;;;6.02;100.00;97601.81;6251375;27;96481;-57
2023/12/24 04:17:21;;;;;;;;;3.00;2.00;;;;;6.01;100.00;97594.88;6243383;27;96315;-56
2023/12/24 04:20:24;;;;;;;;;2.00;2.00;;;;;5.96;100.00;97598.19;6228278;27;96255;-57
2023/12/24 04:23:28;;;;;;;;;3.60;2.20;;;;;5.99;100.00;97604.97;6237497;27;96493;-57
2023/12/24 04:26:35;;;;;;;;;3.40;3.00;;;;;6.01;100.00;97600.22;6226086;27;96415;-56
2023/12/24 04:29:39;;;;;;;;;4.00;3.00;;;;;6.00;100.00;97603.91;6204012;28;98414;-56
2023/12/24 04:32:43;;;;;;;;;2.20;2.20;;;;;6.04;100.00;97619.31;6233930;27;96170;-57
2023/12/24 04:35:46;;;;;;;;;3.60;3.60;;;;;5.98;100.00;97606.81;6237185;27;96383;-56
2023/12/24 04:38:49;;;;;;;;;2.00;2.00;;;;;6.03;100.00;97609.63;6231423;27;96351;-57
2023/12/24 04:41:54;;;;;;;;;1.60;1.20;;;;;6.08;100.00;97607.09;6235843;27;96094;-57
2023/12/24 04:44:57;;;;;;;;;1.75;1.75;;;;;5.91;100.00;97597.25;6242577;27;96952;-56
2023/12/24 04:48:03;;;;;;;;;1.80;1.80;;;;;5.88;100.00;97595.81;6237024;27;96345;-56
2023/12/24 04:51:06;;;;;;;;;3.00;3.00;;;;;5.88;100.00;97589.66;6242474;28;96317;-57
2023/12/24 04:54:10;;;;;;;;;2.25;2.00;;;;;5.87;100.00;97606.72;6245970;27;97101;-56
2023/12/24 04:57:15;;;;;;;;;4.50;3.50;;;;;5.83;100.00;97613.53;6238697;27;96796;-57
2023/12/24 05:00:18;;;;;;;;;3.00;2.25;;;;;5.86;100.00;97603.22;6226962;27;97091;-57
2023/12/24 05:03:21;;;;;;;;;2.00;2.00;;;;;5.79;100.00;97602.47;6218660;27;97579;-57
2023/12/24 05:06:28;;;;;;;;;2.00;2.00;;;;;5.91;100.00;97600.69;6226331;27;96294;-56
2023/12/24 05:09:31;;;;;;;;;3.00;3.00;;;;;5.87;100.00;97588.81;6239335;27;96410;-56
2023/12/24 05:12:35;;;;;;;;;2.00;2.00;;;;;6.02;100.00;97610.66;6248371;27;96217;-56
2023/12/24 05:15:39;;;;;;;;;4.00;3.40;;;;;6.05;100.00;97607.56;6238340;27;96321;-55
2023/12/24 05:18:42;;;;;;;;;2.00;2.00;;;;;6.07;100.00;97616.16;6229940;28;96277;-56
2023/12/24 05:21:45;;;;;;;;;2.00;2.00;;;;;6.09;100.00;97623.97;6229713;27;98004;-55
2023/12/24 05:24:48;;;;;;;;;4.00;4.00;;;;;6.09;100.00;97623.97;6242066;27;96448;-56
2023/12/24 05:27:53;;;;;;;;;3.00;2.60;;;;;6.07;100.00;97629.53;6234224;27;96156;-56
2023/12/24 05:30:56;;;;;;;;;1.00;1.00;;;;;6.11;100.00;97631.78;6243647;28;96852;-56
2023/12/24 05:33:59;;;;;;;;;3.00;2.00;;;;;6.17;100.00;97625.53;6235873;27;96319;-56
2023/12/24 05:37:02;;;;;;;;;3.20;2.80;;;;;6.28;100.00;97638.16;6226494;27;96298;-56
2023/12/24 05:40:06;;;;;;;;;1.20;1.00;;;;;6.32;100.00;97629.44;6235989;27;96677;-56
2023/12/24 05:43:11;;;;;;;;;2.00;2.00;;;;;6.44;100.00;97648.25;6233860;28;96652;-56
2023/12/24 05:46:14;;;;;;;;;2.50;2.50;;;;;6.44;100.00;97642.91;6220154;28;96515;-56
2023/12/24 05:49:17;;;;;;;;;2.00;2.00;;;;;6.46;100.00;97648.81;6230832;28;96312;-56
2023/12/24 05:52:20;;;;;;;;;2.80;2.80;;;;;6.50;100.00;97647.31;6223260;28;96395;-56
2023/12/24 05:55:23;;;;;;;;;3.00;3.00;;;;;6.48;100.00;97644.91;6242656;28;96296;-56
2023/12/24 05:58:28;;;;;;;;;4.00;4.00;;;;;6.50;100.00;97644.66;6241908;27;96527;-55
2023/12/24 06:01:31;;;;;;;;;4.00;4.00;;;;;6.55;100.00;97647.47;6240946;27;96663;-55
2023/12/24 06:04:34;;;;;;;;;3.60;3.60;;;;;6.64;100.00;97654.19;6240710;28;96399;-56
2023/12/24 06:07:37;;;;;;;;;2.60;2.60;;;;;6.54;100.00;97659.25;6219190;28;96702;-56
2023/12/24 06:10:40;;;;;;;;;2.00;1.00;;;;;6.59;100.00;97658.56;6217160;28;97856;-57
2023/12/24 06:13:45;;;;;;;;;3.00;3.00;;;;;6.57;100.00;97655.28;6224711;28;96329;-57
2023/12/24 06:16:48;;;;;;;;;2.20;2.20;;;;;6.59;100.00;97662.06;6224615;28;96428;-56
2023/12/24 06:19:51;;;;;;;;;4.00;4.00;;;;;6.60;100.00;97670.91;6224292;28;96857;-56
2023/12/24 06:22:54;;;;;;;;;4.40;4.00;;;;;6.61;100.00;97665.31;6224343;28;96338;-56
2023/12/24 06:25:57;;;;;;;;;2.00;2.00;;;;;6.70;100.00;97663.13;6224997;28;96283;-56
2023/12/24 06:29:02;;;;;;;;;2.80;2.80;;;;;6.75;100.00;97665.94;6224823;28;96325;-55
2023/12/24 06:32:06;;;;;;;;;2.00;2.00;;;;;6.68;100.00;97660.72;6227492;28;96289;-54
2023/12/24 06:35:10;;;;;;;;;2.00;2.00;;;;;6.65;100.00;97657.63;6222233;28;98998;-57
2023/12/24 06:38:13;;;;;;;;;2.00;2.00;;;;;6.65;100.00;97666.50;6237966;28;96271;-56
2023/12/24 06:41:16;;;;;;;;;3.00;3.00;;;;;6.70;100.00;97674.66;6234255;28;96333;-56
2023/12/24 06:44:21;;;;;;;;;2.00;1.40;;;;;6.75;100.00;97672.13;6224076;28;96300;-56
2023/12/24 06:47:24;;;;;;;;;3.00;3.00;;;;;6.78;100.00;97668.19;6225494;28;96249;-56
2023/12/24 06:50:27;;;;;;;;;3.00;3.00;;;;;6.70;100.00;97663.13;6242666;28;96402;-56
2023/12/24 06:53:30;;;;;;;;;2.00;2.00;;;;;6.75;100.00;97665.94;6224656;28;96840;-56
2023/12/24 06:56:33;;;;;;;;;3.00;3.00;;;;;6.81;100.00;97675.78;6223260;28;96260;-56
2023/12/24 06:59:38;;;;;;;;;1.00;1.00;;;;;6.84;100.00;97673.44;6224215;28;96347;-56
2023/12/24 07:02:41;;;;;;;;;3.00;2.00;;;;;6.85;100.00;97675.09;6236105;28;96825;-56
2023/12/24 07:05:44;;;;;;;;;2.00;2.00;;;;;6.92;100.00;97681.19;6240528;28;96735;-56
2023/12/24 07:08:48;;;;;;;;;3.00;2.00;;;;;7.03;100.00;97690.31;6226648;28;96344;-57
2023/12/24 07:11:51;;;;;;;;;3.00;3.00;;;;;7.12;100.00;97688.13;6227060;28;96224;-56
2023/12/24 07:14:55;;;;;;;;;2.00;2.00;;;;;7.17;100.00;97686.38;6246823;28;96295;-56
2023/12/24 07:17:58;;;;;;;;;3.00;3.00;;;;;7.23;100.00;97687.34;6233628;27;96543;-57
2023/12/24 07:21:02;;;;;;;;;2.00;2.00;;;;;7.23;100.00;97685.44;6239566;27;96426;-57
2023/12/24 07:24:07;;;;;;;;;3.60;3.40;;;;;7.19;100.00;97670.06;6240229;27;96618;-57
2023/12/24 07:27:11;;;;;;;;;2.60;2.40;;;;;7.36;100.00;97679.91;6247794;27;96561;-57
2023/12/24 07:30:15;;;;;;;;;3.00;2.00;;;;;7.39;100.00;97670.56;6232571;27;96276;-57
2023/12/24 07:33:18;;;;;;;;;4.80;3.00;;;;;7.42;100.00;97672.81;6220497;28;96754;-56
2023/12/24 07:36:22;;;;;;;;;3.00;3.00;;;;;7.49;100.00;97683.41;6225116;27;96383;-58
2023/12/24 07:39:25;;;;;;;;;4.00;4.00;;;;;7.57;100.00;97677.72;6224917;27;96391;-56
2023/12/24 07:42:28;;;;;;;;;1.60;1.60;;;;;7.62;100.00;97669.78;6224554;28;96160;-57
2023/12/24 07:45:32;;;;;;;;;4.00;4.00;;;;;7.67;100.00;97668.03;6220165;27;96705;-57
2023/12/24 07:48:35;;;;;;;;;3.00;3.00;;;;;7.68;100.00;97666.16;6224945;28;96639;-56
2023/12/24 07:51:38;;;;;;;;;2.00;2.00;;;;;7.71;100.00;97679.13;6223576;27;96352;-57
2023/12/24 07:54:42;;;;;;;;;3.00;3.00;;;;;7.73;100.00;97667.09;6225553;27;96366;-56
2023/12/24 07:57:45;;;;;;;;;4.00;4.00;;;;;7.83;100.00;97666.50;6224855;27;96264;-57
2023/12/24 08:00:50;;;;;;;;;5.00;5.00;;;;;7.90;100.00;97661.84;6221237;27;97271;-56
2023/12/24 08:03:53;;;;;;;;;3.00;3.00;;;;;7.95;100.00;97663.84;6222202;27;97298;-57
2023/12/24 08:06:56;;;;;;;;;2.60;2.00;;;;;8.04;100.00;97659.75;6219721;27;97337;-56
2023/12/24 08:09:59;;;;;;;;;4.00;4.00;;;;;8.12;100.00;97662.06;6221884;27;96759;-56
2023/12/24 08:13:03;;;;;;;;;5.25;5.00;;;;;8.17;100.00;97662.97;6225095;27;96224;-56
2023/12/24 08:16:17;;;;;;;;;4.00;4.00;;;;;8.17;100.00;97662.97;6216320;27;96491;-57
2023/12/24 08:19:20;;;;;;;;;6.00;6.00;;;;;8.21;100.00;97666.00;6219792;27;96372;-57
2023/12/24 08:22:23;;;;;;;;;4.00;3.80;;;;;8.23;100.00;97659.34;6223994;27;96258;-56
2023/12/24 08:25:27;;;;;;;;;5.00;5.00;;;;;8.25;100.00;97659.13;6230939;27;96257;-56
2023/12/24 08:28:30;;;;;;;;;4.75;4.00;;;;;8.26;100.00;97647.31;6229695;27;96358;-56
2023/12/24 08:31:34;;;;;;;;;3.00;3.00;;;;;8.29;100.00;97662.97;6233557;27;96250;-56
2023/12/24 08:34:38;;;;;;;;;3.00;3.00;;;;;8.31;100.00;97673.50;6228115;28;97545;-57
2023/12/24 08:37:41;;;;;;;;;4.25;3.25;;;;;8.22;100.00;97646.97;6233761;27;97238;-56
2023/12/24 08:40:44;;;;;;;;;4.00;4.00;;;;;8.37;100.00;97676.06;6226238;27;96844;-56
2023/12/24 08:43:47;;;;;;;;;4.00;4.00;;;;;8.41;100.00;97685.25;6245185;27;96617;-57
2023/12/24 08:46:52;;;;;;;;;4.00;4.00;;;;;8.42;100.00;97686.91;6236837;27;96330;-57
2023/12/24 08:49:56;;;;;;;;;6.60;6.00;;;;;8.45;100.00;97688.31;6264023;27;96319;-58
2023/12/24 08:53:00;;;;;;;;;4.00;3.00;;;;;8.49;100.00;97686.78;6249716;28;96186;-58
2023/12/24 08:56:03;;;;;;;;;5.00;4.00;;;;;8.54;100.00;97686.88;6262897;28;96807;-58
2023/12/24 08:59:08;;;;;;;;;6.00;5.00;;;;;8.48;100.00;97666.34;6256430;27;97540;-58
2023/12/24 09:02:13;;;;;;;;;4.00;4.00;;;;;8.56;100.00;97677.53;6261580;27;96368;-58
2023/12/24 09:05:18;;;;;;;;;5.00;5.00;;;;;8.52;100.00;97675.53;6239770;27;97616;-59
2023/12/24 09:08:21;;;;;;;;;6.00;5.40;;;;;8.47;100.00;97662.00;6239365;27;96599;-60
2023/12/24 09:11:24;;;;;;;;;6.00;5.00;;;;;8.53;100.00;97669.94;6232462;27;96645;-60
2023/12/24 09:14:27;;;;;;;;;5.00;4.25;;;;;8.59;100.00;97668.19;6228495;27;96330;-59
2023/12/24 09:17:32;;;;;;;;;7.00;7.00;;;;;8.64;100.00;97666.41;6231469;27;96676;-60
2023/12/24 09:20:35;;;;;;;;;5.25;5.25;;;;;8.66;100.00;97648.16;6229781;27;97862;-58
2023/12/24 09:23:38;;;;;;;;;5.67;5.00;;;;;8.69;100.00;97650.41;6234632;27;97627;-60
2023/12/24 09:26:42;;;;;;;;;4.60;4.60;;;;;8.74;100.00;97660.44;6229163;27;97128;-60
2023/12/24 09:29:45;;;;;;;;;5.80;5.20;;;;;8.77;100.00;97648.38;6229498;28;96364;-60
2023/12/24 09:32:49;;;;;;;;;8.00;7.60;;;;;8.78;100.00;97645.44;6227674;27;97219;-59
2023/12/24 09:35:53;;;;;;;;;7.00;7.00;;;;;8.80;100.00;97639.81;6221721;27;96270;-60
2023/12/24 09:38:56;;;;;;;;;9.60;8.60;;;;;8.82;100.00;97643.09;6226076;28;96297;-60
2023/12/24 09:42:00;;;;;;;;;7.00;7.00;;;;;8.82;100.00;97633.16;6226125;28;96473;-60
2023/12/24 09:45:03;;;;;;;;;9.80;8.80;;;;;8.87;100.00;97627.88;6232832;27;98456;-60
2023/12/24 09:48:07;;;;;;;;;9.00;9.00;;;;;8.87;100.00;97622.50;6222416;27;96226;-59
2023/12/24 09:51:11;;;;;;;;;9.60;9.60;;;;;8.88;100.00;97623.31;6228149;27;96285;-59
2023/12/24 09:54:15;;;;;;;;;9.60;9.60;;;;;8.89;100.00;97612.34;6225044;28;96146;-59
2023/12/24 09:57:18;;;;;;;;;9.00;8.25;;;;;8.88;100.00;97602.63;6234096;27;96737;-60
2023/12/24 10:00:22;;;;;;;;;12.00;10.60;;;;;8.88;100.00;97609.88;6233802;27;96651;-59
2023/12/24 10:03:26;;;;;;;;;8.40;8.00;;;;;8.87;100.00;97597.50;6233518;27;96482;-60
2023/12/24 10:06:30;;;;;;;;;11.00;10.00;;;;;8.88;100.00;97593.75;6232734;27;96671;-60
2023/12/24 10:09:43;;;;;;;;;9.40;8.40;;;;;8.90;100.00;97578.19;6227581;27;96569;-59
2023/12/24 10:12:46;;;;;;;;;8.00;7.40;;;;;8.95;100.00;97581.78;6228174;27;96372;-59
2023/12/24 10:16:02;;;;;;;;;12.00;11.00;;;;;8.99;100.00;97577.53;6229325;27;96327;-59
2023/12/24 10:19:06;;;;;;;;;11.00;10.75;;;;;9.05;100.00;97567.69;6241686;27;98510;-59
2023/12/24 10:22:10;;;;;;;;;10.40;10.40;;;;;9.12;100.00;97560.28;6224606;28;96860;-60
2023/12/24 10:25:17;;;;;;;;;12.00;10.25;;;;;9.17;100.00;97557.69;6236903;27;96918;-60
2023/12/24 10:28:20;;;;;;;;;13.25;11.75;;;;;9.24;100.00;97552.94;6237177;27;96277;-59
2023/12/24 10:31:23;;;;;;;;;12.60;11.80;;;;;9.28;100.00;97550.59;6227744;27;96671;-60
2023/12/24 10:34:29;;;;;;;;;13.00;10.00;;;;;9.35;100.00;97546.66;6227286;28;96280;-60
2023/12/24 10:37:33;;;;;;;;;14.00;13.00;;;;;9.41;100.00;97555.63;6224088;27;96488;-59
2023/12/24 10:40:36;;;;;;;;;11.80;11.40;;;;;9.44;100.00;97538.97;6225914;28;96963;-60
2023/12/24 10:43:40;;;;;;;;;12.00;11.75;;;;;9.43;100.00;97540.06;6228963;27;96531;-60
2023/12/24 10:46:44;;;;;;;;;13.00;12.50;;;;;9.42;100.00;97533.88;6233028;28;96175;-60
2023/12/24 10:49:48;;;;;;;;;14.00;13.00;;;;;9.36;100.00;97529.47;6243945;27;96408;-60
2023/12/24 10:52:52;;;;;;;;;18.00;16.00;;;;;9.34;100.00;97518.13;6263982;27;96637;-60
2023/12/24 10:56:08;;;;;;;;;17.00;15.60;;;;;9.39;100.00;97517.41;6262332;27;96908;-60
2023/12/24 10:59:22;;;;;;;;;14.60;14.00;;;;;9.43;100.00;97510.50;6231010;27;96225;-60
2023/12/24 11:02:25;;;;;;;;;19.00;17.00;;;;;9.47;100.00;97508.91;6219322;28;98425;-60
2023/12/24 11:05:50;;;;;;;;;21.00;21.00;;;;;9.54;100.00;97507.66;6226111;28;96670;-60
2023/12/24 11:08:53;;;;;;;;;22.00;21.00;;;;;9.62;100.00;97492.16;6231636;27;97808;-60
2023/12/24 11:11:58;;;;;;;;;19.00;19.00;;;;;9.70;100.00;97494.41;6218237;27;96462;-60
2023/12/24 11:15:02;;;;;;;;;17.00;16.00;;;;;9.73;100.00;97475.88;6225134;28;96949;-60
2023/12/24 11:18:06;;;;;;;;;18.00;16.40;;;;;9.79;100.00;97476.75;6220396;28;96236;-57
2023/12/24 11:21:12;;;;;;;;;20.00;18.00;;;;;9.82;100.00;97479.75;6231973;28;96706;-57
2023/12/24 11:24:21;;;;;;;;;18.50;17.50;;;;;9.83;100.00;97483.28;6232979;28;96333;-54
2023/12/24 11:27:51;;;;;;;;;17.00;15.67;;;;;9.85;100.00;97465.00;6231759;28;96894;-54
2023/12/24 11:31:06;;;;;;;;;17.60;16.00;;;;;9.87;100.00;97462.88;6233045;27;97132;-54
2023/12/24 11:34:09;;;;;;;;;16.00;15.40;;;;;9.89;100.00;97466.13;6231332;28;96727;-55
2023/12/24 11:37:26;;;;;;;;;18.00;17.00;;;;;9.90;100.00;97468.56;6234995;28;96566;-57
2023/12/24 11:40:29;;;;;;;;;14.80;13.80;;;;;9.89;100.00;97468.81;6253715;27;98414;-56
2023/12/24 11:43:32;;;;;;;;;19.00;18.60;;;;;9.91;100.00;97454.06;6246294;28;96171;-56
2023/12/24 11:46:36;;;;;;;;;16.00;15.00;;;;;9.91;100.00;97462.13;6243469;28;96245;-57
2023/12/24 11:49:45;;;;;;;;;18.00;17.25;;;;;9.92;100.00;97461.03;6236528;28;96260;-56
2023/12/24 11:52:50;;;;;;;;;19.40;18.00;;;;;9.97;100.00;97449.50;6231299;27;96675;-56
2023/12/24 11:56:08;;;;;;;;;22.00;20.00;;;;;9.93;100.00;97438.44;6229952;28;96397;-56
2023/12/24 11:59:11;;;;;;;;;22.00;22.00;;;;;9.89;100.00;97437.34;6233343;28;96352;-57
2023/12/24 12:02:14;;;;;;;;;19.40;19.00;;;;;9.89;100.00;97440.03;6235445;28;97478;-57
2023/12/24 12:05:17;;;;;;;;;19.00;17.00;;;;;9.87;100.00;97433.28;6249083;28;97057;-57
2023/12/24 12:08:23;;;;;;;;;22.80;19.80;;;;;9.82;100.00;97439.38;6251525;27;96213;-57
2023/12/24 12:11:26;;;;;;;;;21.00;20.00;;;;;9.82;100.00;97436.69;6237723;27;96341;-57
2023/12/24 12:14:29;;;;;;;;;22.75;21.00;;;;;9.85;100.00;97430.84;6253809;28;96960;-56
2023/12/24 12:17:32;;;;;;;;;22.00;18.40;;;;;9.80;100.00;97427.28;6254571;27;96321;-57
2023/12/24 12:20:36;;;;;;;;;25.00;23.00;;;;;9.90;100.00;97432.75;6245416;28;96496;-57
2023/12/24 12:23:41;;;;;;;;;22.40;20.00;;;;;9.89;100.00;97437.34;6249534;28;96282;-57
2023/12/24 12:26:44;;;;;;;;;19.40;18.00;;;;;9.78;100.00;97435.59;6249314;28;96736;-57
2023/12/24 12:29:47;;;;;;;;;21.00;19.50;;;;;9.80;100.00;97440.72;6253970;27;96354;-57
2023/12/24 12:32:50;;;;;;;;;24.40;22.00;;;;;9.71;100.00;97443.06;6253547;27;96576;-58
2023/12/24 12:35:55;;;;;;;;;23.00;21.00;;;;;9.71;100.00;97434.97;6256798;28;96507;-57
2023/12/24 12:38:59;;;;;;;;;24.60;22.40;;;;;9.55;100.00;97407.06;6250909;27;96363;-56
2023/12/24 12:42:04;;;;;;;;;27.20;26.00;;;;;9.69;100.00;97429.03;6260419;28;96196;-57
2023/12/24 12:45:09;;;;;;;;;25.40;24.40;;;;;9.71;100.00;97429.59;6244534;28;96309;-57
2023/12/24 12:48:12;;;;;;;;;24.60;23.00;;;;;9.73;100.00;97435.53;6248385;28;97356;-57
2023/12/24 12:51:16;;;;;;;;;29.60;28.00;;;;;9.74;100.00;97428.25;6247728;27;96486;-57
2023/12/24 12:54:21;;;;;;;;;29.60;27.60;;;;;9.78;100.00;97424.00;6245652;27;97163;-56
2023/12/24 12:57:32;;;;;;;;;27.00;26.00;;;;;9.84;100.00;97423.00;6248855;27;96400;-58
2023/12/24 13:00:35;;;;;;;;;29.50;27.75;;;;;9.85;100.00;97424.63;6248648;28;96059;-58
2023/12/24 13:03:56;;;;;;;;;27.00;26.00;;;;;9.87;100.00;97430.59;6251316;27;96949;-58
2023/12/24 13:07:02;;;;;;;;;34.40;29.40;;;;;9.95;100.00;97432.81;6254202;27;96266;-58
2023/12/24 13:10:08;;;;;;;;;31.50;27.00;;;;;9.98;100.00;97432.31;6255877;27;96539;-57
2023/12/24 13:13:13;;;;;;;;;29.60;27.20;;;;;10.04;100.00;97436.69;6256813;27;98144;-58
2023/12/24 13:16:22;;;;;;;;;34.50;30.50;;;;;10.12;100.00;97436.22;6237633;27;96341;-58
2023/12/24 13:19:26;;;;;;;;;35.40;31.60;;;;;10.16;100.00;97440.09;6252997;28;96327;-58
2023/12/24 13:22:30;;;;;;;;;31.40;28.60;;;;;10.18;100.00;97445.19;6257586;27;97004;-57
2023/12/24 13:25:35;;;;;;;;;34.60;31.60;;;;;10.21;100.00;97439.31;6257892;27;96219;-58
2023/12/24 13:28:38;;;;;;;;;36.80;32.60;;;;;10.24;100.00;97433.41;6256656;27;96392;-57
2023/12/24 13:31:43;;;;;;;;;37.00;32.80;;;;;10.29;100.00;97441.53;6256751;28;96920;-57
2023/12/24 13:34:46;;;;;;;;;31.50;30.00;;;;;10.30;100.00;97438.59;6255986;27;96252;-58
2023/12/24 13:37:49;;;;;;;;;34.40;31.00;;;;;10.33;100.00;97435.38;6257338;27;96719;-58
2023/12/24 13:40:54;;;;;;;;;36.00;31.00;;;;;10.27;100.00;97436.41;6252911;27;96383;-58
2023/12/24 13:43:57;;;;;;;;;29.60;29.00;;;;;10.25;100.00;97435.88;6257804;28;96318;-57
2023/12/24 13:47:00;;;;;;;;;29.00;26.25;;;;;10.28;100.00;97421.06;6254975;27;96306;-57
2023/12/24 13:50:04;;;;;;;;;24.40;24.00;;;;;10.29;100.00;97430.78;6249513;28;96341;-57
2023/12/24 13:53:07;;;;;;;;;25.40;24.00;;;;;10.25;100.00;97427.78;6238958;28;96361;-57
2023/12/24 13:56:33;;;;;;;;;23.50;20.75;;;;;10.29;100.00;97415.44;6238417;28;96306;-56
2023/12/24 13:59:36;;;;;;;;;21.40;20.00;;;;;10.36;100.00;97417.91;6220990;28;96713;-57
2023/12/24 14:02:39;;;;;;;;;15.00;14.40;;;;;10.39;100.00;97428.19;6236000;28;96239;-58
2023/12/24 14:05:42;;;;;;;;;12.25;12.25;;;;;10.46;100.00;97420.69;6243939;27;96878;-58
2023/12/24 14:08:46;;;;;;;;;10.00;10.00;;;;;10.45;100.00;97418.25;6239237;27;97686;-58
2023/12/24 14:11:50;;;;;;;;;9.60;8.60;;;;;10.55;100.00;97408.38;6240868;27;96317;-58
2023/12/24 14:14:53;;;;;;;;;8.60;8.00;;;;;10.56;100.00;97393.81;6250082;27;96369;-58
2023/12/24 14:17:58;;;;;;;;;6.75;6.00;;;;;10.73;100.00;97415.25;6256596;28;96869;-56
2023/12/24 14:21:01;;;;;;;;;7.20;6.80;;;;;10.70;100.00;97421.16;6259013;27;96874;-57